Bayfield, Canada
Current Conditions -  °F | °C
As of 4:00 AM on Monday 22 Dec 2014 (Local Time) from CYXU Reporting Station
Overcast Overcast  
Wind Chill: 22°   Ceiling: 2100
Heat Index: 30°   Visibility: 15mi
Dew Point: 25°   Wind: 9mph
Humidity: 80%   Direction: 110°ESE
Pressure: 30.16"   Gusts: NA
Location:  43.56°N, 81.7°W
Report Text: CYXU 220900Z 11008KT 15SM OVC021 M01/M04 A3016 RMK SC8 SLP225
Loading
Personal Weather Stations






























Interactive Weather Map New forecast layout! Learn more

10-Day Weather Forecast

Advertisements
Track Severe Weather on mobile